Beijing, China

5:39 PM CST on December 03, 2016 (GMT +0800)
Yu Quan Lu | | Change Station

Elev 200 ft 39.91 °N, 116.25 °E | Updated 7 minutes ago

Haze
Haze
46.8 °F
Feels Like 47 °F
N
2.5
Wind Variable Wind from SW
Gusts 4.3 mph

Today
High -- | Low -- °F
--% Chance of Precip.
Yesterday
High -- | Low -- °F
Precip. -- in
Pressure 30.06 in
Visibility 1.2 miles
Clouds
Windchill 47 °F
Dew Point 29 °F
Humidity 50%
Rainfall 0.00 in
Snow Depth Not available.
7:19 AM 4:50 PM
Waxing Crescent, 13% visible
METAR ZBAA 030930Z 11002MPS 090V150 2000 HZ NSC 01/M03 Q1018 NOSIG
Pressure 30.06 in
Visibility 1.2 miles
Clouds
Windchill 47 °F
Dew Point 29 °F
Humidity 50%
Rainfall 0.00 in
Snow Depth Not available.
7:19 AM 4:50 PM
Waxing Crescent, 13% visible
METAR ZBAA 030930Z 11002MPS 090V150 2000 HZ NSC 01/M03 Q1018 NOSIG

10-Day Weather Forecast

No radar image for this location.
×

Almanac

Astronomy

Dec. 03, 2016 Rise Set
Actual Time
Civil Twilight
Nautical Twilight
Astronomical Twilight
Moon
Length of Visible Light
Length of Day
Tomorrow will be .
, % of the Moon is Illuminated

Today's Extremes

Country Highs Country Lows

Community

WunderPhotos

Upload Photos

1,955,434 photos uploaded!

WunderBlog® & News

Nearby

Air Quality

  Air Quality AQ Index Pollutant
Not available.

Snow Depth

Station Depth Elevation

Earthquake Activity

City Distance Mag. Time & Date
Minimum magnitude displayed is 2.5.

Coastal Water Temperatures

Place Temperature

Stations

Nearby Weather Stations

Station Location Temp. Windchill Dew Point Humidity Wind Precip. Elev Updated Type